createdAt,value
2019-04-11T00:01:33.898Z,5.70
2019-04-11T00:03:29.231Z,5.70
2019-04-11T00:05:33.020Z,5.60
2019-04-11T00:07:36.724Z,5.60
2019-04-11T00:09:40.860Z,5.60
2019-04-11T00:11:44.594Z,5.50
2019-04-11T00:13:49.407Z,5.50
2019-04-11T00:15:53.052Z,5.40
2019-04-11T00:17:56.739Z,5.60
2019-04-11T00:20:00.598Z,5.60
2019-04-11T00:22:05.582Z,5.60
2019-04-11T00:24:10.397Z,5.50
2019-04-11T00:26:14.319Z,5.60
2019-04-11T00:28:17.900Z,5.60
2019-04-11T00:30:21.983Z,5.60
2019-04-11T00:32:25.832Z,5.50
2019-04-11T00:34:29.392Z,5.50
2019-04-11T00:36:33.050Z,5.50
2019-04-11T00:38:36.624Z,5.50
2019-04-11T00:40:41.524Z,5.60
2019-04-11T00:42:45.249Z,5.60
2019-04-11T00:44:49.549Z,5.70
2019-04-11T00:46:53.268Z,5.70
2019-04-11T00:48:57.709Z,5.70
2019-04-11T00:51:01.527Z,5.70
2019-04-11T00:53:05.588Z,5.70
2019-04-11T00:55:09.802Z,5.60
2019-04-11T00:57:14.812Z,5.50
2019-04-11T00:59:18.488Z,5.50
2019-04-11T01:01:22.186Z,5.50
2019-04-11T01:03:26.402Z,5.50
2019-04-11T01:05:30.202Z,5.50
2019-04-11T01:07:33.797Z,5.50
2019-04-11T01:09:37.368Z,5.40
2019-04-11T01:11:41.000Z,5.40
2019-04-11T01:13:50.896Z,5.40
2019-04-11T01:16:00.746Z,5.50
2019-04-11T01:18:05.502Z,5.50
2019-04-11T01:20:09.816Z,5.50
2019-04-11T01:22:14.021Z,5.50
2019-04-11T01:24:17.966Z,5.50
2019-04-11T01:26:21.532Z,5.40
2019-04-11T01:28:25.160Z,5.50
2019-04-11T01:30:37.053Z,5.40
2019-04-11T01:32:40.800Z,5.50
2019-04-11T01:34:44.604Z,5.40
2019-04-11T01:36:48.321Z,5.30
2019-04-11T01:38:54.709Z,5.40
2019-04-11T01:40:58.298Z,5.40
2019-04-11T01:43:01.972Z,5.40
2019-04-11T01:45:07.472Z,5.40
2019-04-11T01:47:12.959Z,5.40
2019-04-11T01:49:21.834Z,5.30
2019-04-11T01:51:25.527Z,5.30
2019-04-11T01:53:29.084Z,5.30
2019-04-11T01:55:32.666Z,5.30
2019-04-11T01:57:36.416Z,5.30
2019-04-11T01:59:40.079Z,5.30
2019-04-11T02:01:51.065Z,5.20
2019-04-11T02:04:05.820Z,5.20
2019-04-11T02:06:09.758Z,5.20
2019-04-11T02:08:13.377Z,5.20
2019-04-11T02:10:16.961Z,5.20
2019-04-11T02:12:20.851Z,5.20
2019-04-11T02:14:24.440Z,5.20
2019-04-11T02:16:29.259Z,5.20
2019-04-11T02:18:32.976Z,5.00
2019-04-11T02:20:36.906Z,5.10
2019-04-11T02:22:42.423Z,5.10
2019-04-11T02:24:48.012Z,5.10
2019-04-11T02:26:59.133Z,5.20
2019-04-11T02:29:03.481Z,5.10
2019-04-11T02:31:09.679Z,5.00
2019-04-11T02:33:14.143Z,4.90
2019-04-11T02:35:19.869Z,4.90
2019-04-11T02:37:24.263Z,4.90
2019-04-11T02:39:30.838Z,4.90
2019-04-11T02:41:35.329Z,4.90
2019-04-11T02:43:41.848Z,5.00
2019-04-11T02:45:55.627Z,4.90
2019-04-11T02:47:51.735Z,4.90
2019-04-11T02:49:55.224Z,4.90
2019-04-11T02:52:00.640Z,4.90
2019-04-11T02:54:06.657Z,4.90
2019-04-11T02:56:11.723Z,4.80
2019-04-11T02:58:16.166Z,4.80
2019-04-11T03:00:20.552Z,4.70
2019-04-11T03:02:26.626Z,4.60
2019-04-11T03:04:31.030Z,4.50
2019-04-11T03:06:35.615Z,4.50
2019-04-11T03:08:41.043Z,4.50
2019-04-11T03:10:45.957Z,4.40
2019-04-11T03:12:50.028Z,4.40
2019-04-11T03:15:12.597Z,4.40
2019-04-11T03:17:09.995Z,4.40
2019-04-11T03:19:18.411Z,4.40
2019-04-11T03:21:14.501Z,4.40
2019-04-11T03:23:19.294Z,4.40
2019-04-11T03:25:22.530Z,4.40
2019-04-11T03:27:28.814Z,4.40
2019-04-11T03:29:35.076Z,4.50
2019-04-11T03:34:25.095Z,4.40
2019-04-11T03:36:37.484Z,4.40
2019-04-11T03:38:18.856Z,4.40
2019-04-11T03:40:22.390Z,4.40
2019-04-11T03:42:20.578Z,4.30
2019-04-11T03:44:20.559Z,4.30
2019-04-11T03:46:34.006Z,4.30
2019-04-11T03:48:33.309Z,4.30
2019-04-11T03:50:30.530Z,4.20
2019-04-11T03:52:32.793Z,4.10
2019-04-11T03:54:40.137Z,4.10
2019-04-11T03:56:43.263Z,4.10
2019-04-11T03:58:48.293Z,4.10
2019-04-11T04:00:55.170Z,4.10
2019-04-11T04:03:00.184Z,4.10
2019-04-11T04:05:06.081Z,4.00
2019-04-11T04:07:12.382Z,4.00
2019-04-11T04:09:16.385Z,4.00
2019-04-11T04:11:24.264Z,4.00
2019-04-11T04:13:30.167Z,4.00
2019-04-11T04:15:55.585Z,4.00
2019-04-11T04:17:52.023Z,4.10
2019-04-11T04:20:15.155Z,4.10
2019-04-11T04:22:32.544Z,4.10
2019-04-11T04:24:40.030Z,4.10
2019-04-11T04:26:43.150Z,4.10
2019-04-11T04:28:47.548Z,4.00
2019-04-11T04:30:51.941Z,3.90
2019-04-11T04:32:57.364Z,3.90
2019-04-11T04:35:01.698Z,3.90
2019-04-11T04:37:06.329Z,3.80
2019-04-11T04:39:12.466Z,3.90
2019-04-11T04:41:29.748Z,3.90
2019-04-11T04:43:24.937Z,3.90
2019-04-11T04:45:30.044Z,3.90
2019-04-11T04:47:42.795Z,3.90
2019-04-11T04:49:40.732Z,3.90
2019-04-11T04:51:45.710Z,3.80
2019-04-11T04:53:50.198Z,3.90
2019-04-11T04:55:54.356Z,3.90
2019-04-11T04:57:59.685Z,4.00
2019-04-11T05:00:06.617Z,3.90
2019-04-11T05:02:10.993Z,4.00
2019-04-11T05:04:15.782Z,3.90
2019-04-11T05:06:20.642Z,3.90
2019-04-11T05:08:24.994Z,4.00
2019-04-11T05:10:30.443Z,4.00
2019-04-11T05:12:34.603Z,4.00
2019-04-11T05:14:39.358Z,4.00
2019-04-11T05:16:44.176Z,3.90
2019-04-11T05:18:48.470Z,3.90
2019-04-11T05:20:52.772Z,3.90
2019-04-11T05:22:56.521Z,3.90
2019-04-11T05:25:01.881Z,3.90
2019-04-11T05:27:06.268Z,3.90
2019-04-11T05:29:11.129Z,3.90
2019-04-11T05:31:14.747Z,3.90
2019-04-11T05:33:18.344Z,4.00
2019-04-11T05:35:22.793Z,4.00
2019-04-11T05:37:26.951Z,4.00
2019-04-11T05:39:31.623Z,4.00
2019-04-11T05:41:35.473Z,4.00
2019-04-11T05:43:41.291Z,4.00
2019-04-11T05:45:44.369Z,3.90
2019-04-11T05:47:50.873Z,4.00
2019-04-11T05:49:55.273Z,4.00
2019-04-11T05:52:00.843Z,4.10
2019-04-11T05:54:07.659Z,4.20
2019-04-11T05:56:11.248Z,4.20
2019-04-11T05:58:15.973Z,4.20
2019-04-11T06:00:24.184Z,4.20
2019-04-11T06:02:33.117Z,4.20
2019-04-11T06:04:38.561Z,4.30
2019-04-11T06:06:44.339Z,4.20
2019-04-11T06:08:49.337Z,4.20
2019-04-11T06:11:16.494Z,4.40
2019-04-11T06:13:38.138Z,4.40
2019-04-11T06:15:47.234Z,4.40
2019-04-11T06:17:51.636Z,4.50
2019-04-11T06:20:14.338Z,4.50
2019-04-11T06:22:19.817Z,4.60
2019-04-11T06:24:28.002Z,4.60
2019-04-11T06:26:45.146Z,4.60
2019-04-11T06:28:53.676Z,4.60
2019-04-11T06:31:13.813Z,4.70
2019-04-11T06:33:28.862Z,4.80
2019-04-11T06:35:34.173Z,4.90
2019-04-11T06:37:52.195Z,4.90
2019-04-11T06:40:00.857Z,5.00
2019-04-11T06:42:25.430Z,5.10
2019-04-11T06:44:37.547Z,5.10
2019-04-11T06:46:53.929Z,5.10
2019-04-11T06:48:49.806Z,5.00
2019-04-11T06:51:03.936Z,5.10
2019-04-11T06:53:08.869Z,5.10
2019-04-11T06:55:14.868Z,5.10
2019-04-11T06:57:20.126Z,5.20
2019-04-11T06:59:32.363Z,5.20
2019-04-11T07:01:36.268Z,5.30
2019-04-11T07:03:47.245Z,5.20
2019-04-11T07:05:51.079Z,5.20
2019-04-11T07:07:56.359Z,5.10
2019-04-11T07:10:02.111Z,5.20
2019-04-11T07:12:10.048Z,5.30
2019-04-11T07:14:15.267Z,5.40
2019-04-11T07:16:19.911Z,5.60
2019-04-11T07:18:41.629Z,5.70
2019-04-11T07:20:52.588Z,5.70
2019-04-11T07:23:13.789Z,5.80
2019-04-11T07:25:35.425Z,6.00
2019-04-11T07:27:40.885Z,6.00
2019-04-11T07:30:03.179Z,6.00
2019-04-11T07:32:09.397Z,6.10
2019-04-11T07:34:24.241Z,6.20
2019-04-11T07:36:46.248Z,6.20
2019-04-11T07:38:57.260Z,6.20
2019-04-11T07:41:19.593Z,6.20
2019-04-11T07:43:23.342Z,6.20
2019-04-11T07:45:29.700Z,6.30
2019-04-11T07:47:46.279Z,6.40
2019-04-11T07:49:54.903Z,6.30
2019-04-11T07:52:02.497Z,6.30
2019-04-11T07:54:09.377Z,6.40
2019-04-11T07:56:16.531Z,6.40
2019-04-11T07:58:21.678Z,6.40
2019-04-11T08:00:38.572Z,6.40
2019-04-11T08:02:50.389Z,6.40
2019-04-11T08:04:58.653Z,6.40
2019-04-11T08:07:20.582Z,6.60
2019-04-11T08:09:26.769Z,6.60
2019-04-11T08:11:32.133Z,6.60
2019-04-11T08:13:37.436Z,6.50
2019-04-11T08:15:51.921Z,6.40
2019-04-11T08:17:56.468Z,6.20
2019-04-11T08:20:13.841Z,6.30
2019-04-11T08:22:35.547Z,6.30
2019-04-11T08:24:46.871Z,6.30
2019-04-11T08:27:07.565Z,6.40
2019-04-11T08:29:14.040Z,6.40
2019-04-11T08:31:21.571Z,6.50
2019-04-11T08:33:26.851Z,6.60
2019-04-11T08:35:37.976Z,6.70
2019-04-11T08:37:55.999Z,6.70
2019-04-11T08:39:59.725Z,6.70
2019-04-11T08:42:14.926Z,6.80
2019-04-11T08:44:19.498Z,6.90
2019-04-11T08:46:35.036Z,7.10
2019-04-11T08:48:44.132Z,7.20
2019-04-11T08:50:55.692Z,7.40
2019-04-11T08:53:13.070Z,7.50
2019-04-11T08:55:18.998Z,7.60
2019-04-11T08:57:30.142Z,7.70
2019-04-11T08:59:41.787Z,7.80
2019-04-11T09:01:46.012Z,7.80
2019-04-11T09:04:12.105Z,7.80
2019-04-11T09:06:16.737Z,7.70
2019-04-11T09:08:38.456Z,7.80
2019-04-11T09:11:00.184Z,7.80
2019-04-11T09:13:09.058Z,7.80
2019-04-11T09:15:31.024Z,8.00
2019-04-11T09:17:39.311Z,8.00
2019-04-11T09:20:01.142Z,8.00
2019-04-11T09:22:10.910Z,8.10
2019-04-11T09:24:34.650Z,8.00
2019-04-11T09:26:42.766Z,7.90
2019-04-11T09:28:46.340Z,8.00
2019-04-11T09:31:10.723Z,8.00
2019-04-11T09:33:33.109Z,8.10
2019-04-11T09:35:41.645Z,8.20
2019-04-11T09:37:46.265Z,8.20
2019-04-11T09:39:55.232Z,8.10
2019-04-11T09:42:13.442Z,7.90
2019-04-11T09:44:18.728Z,7.80
2019-04-11T09:46:27.225Z,7.70
2019-04-11T09:48:35.639Z,7.70
2019-04-11T09:50:53.250Z,7.70
2019-04-11T09:52:58.608Z,7.80
2019-04-11T09:55:16.860Z,7.90
2019-04-11T09:57:25.138Z,7.90
2019-04-11T09:59:31.463Z,7.90
2019-04-11T10:01:53.991Z,7.70
2019-04-11T10:03:57.689Z,7.60
2019-04-11T10:06:05.454Z,7.60
2019-04-11T10:08:16.966Z,7.60
2019-04-11T10:10:28.937Z,7.40
2019-04-11T10:12:40.542Z,7.40
2019-04-11T10:14:46.033Z,7.50
2019-04-11T10:17:08.684Z,7.70
2019-04-11T10:19:14.147Z,7.80
2019-04-11T10:21:19.435Z,7.60
2019-04-11T10:23:25.044Z,7.60
2019-04-11T10:25:31.923Z,7.50
2019-04-11T10:27:40.646Z,7.20
2019-04-11T10:30:02.035Z,7.30
2019-04-11T10:32:07.262Z,7.40
2019-04-11T10:34:15.362Z,7.60
2019-04-11T10:36:21.076Z,7.60
2019-04-11T10:38:24.638Z,7.50
2019-04-11T10:40:32.279Z,7.60
2019-04-11T10:42:36.844Z,7.50
2019-04-11T10:44:47.896Z,7.50
2019-04-11T10:46:55.821Z,7.50
2019-04-11T10:49:01.217Z,7.60
2019-04-11T10:51:09.233Z,7.60
2019-04-11T10:53:13.072Z,7.70
2019-04-11T10:55:18.348Z,7.70
2019-04-11T10:57:32.965Z,7.80
2019-04-11T10:59:41.132Z,7.80
2019-04-11T11:01:58.411Z,7.90
2019-04-11T11:04:07.386Z,7.80
2019-04-11T11:06:13.613Z,7.80
2019-04-11T11:08:29.058Z,7.80
2019-04-11T11:10:37.574Z,7.80
2019-04-11T11:12:43.518Z,8.00
2019-04-11T11:15:05.176Z,8.10
2019-04-11T11:17:39.004Z,8.20
2019-04-11T11:19:50.068Z,8.30
2019-04-11T11:21:47.101Z,8.20
2019-04-11T11:24:09.231Z,8.30
2019-04-11T11:26:19.769Z,8.30
2019-04-11T11:28:23.694Z,8.40
2019-04-11T11:30:29.588Z,8.60
2019-04-11T11:32:33.601Z,8.50
2019-04-11T11:34:49.307Z,8.40
2019-04-11T11:36:55.006Z,8.60
2019-04-11T11:39:17.452Z,8.90
2019-04-11T11:41:40.543Z,9.10
2019-04-11T11:43:45.382Z,9.30
2019-04-11T11:46:07.198Z,9.40
2019-04-11T11:48:20.785Z,9.50
2019-04-11T11:50:26.652Z,9.20
2019-04-11T11:52:37.599Z,9.30
2019-04-11T11:54:43.986Z,9.30
2019-04-11T11:56:48.931Z,9.20
2019-04-11T11:59:11.248Z,9.20
2019-04-11T12:01:19.854Z,9.40
2019-04-11T12:03:29.164Z,9.60
2019-04-11T12:05:32.719Z,9.80
2019-04-11T12:07:39.349Z,10.00
2019-04-11T12:10:00.944Z,10.10
2019-04-11T12:12:06.474Z,9.90
2019-04-11T12:14:15.838Z,9.40
2019-04-11T12:16:22.084Z,9.40
2019-04-11T12:18:47.164Z,9.60
2019-04-11T12:20:49.689Z,9.70
2019-04-11T12:22:53.732Z,9.80
2019-04-11T12:25:16.802Z,9.70
2019-04-11T12:27:40.040Z,9.80
2019-04-11T12:29:50.461Z,9.60
2019-04-11T12:31:59.604Z,9.60
2019-04-11T12:34:12.259Z,9.60
2019-04-11T12:36:18.747Z,9.60
2019-04-11T12:38:26.818Z,9.50
2019-04-11T12:40:48.528Z,9.50
2019-04-11T12:42:52.370Z,9.30
2019-04-11T12:45:14.211Z,9.80
2019-04-11T12:47:22.888Z,10.30
2019-04-11T12:49:28.236Z,10.00
2019-04-11T12:51:39.562Z,9.90
2019-04-11T12:53:43.269Z,9.70
2019-04-11T12:55:54.289Z,9.30
2019-04-11T12:58:15.833Z,9.50
2019-04-11T13:00:21.208Z,9.50
2019-04-11T13:02:29.225Z,9.60
2019-04-11T13:04:32.839Z,9.80
2019-04-11T13:06:39.966Z,9.70
2019-04-11T13:09:01.304Z,9.50
2019-04-11T13:11:05.632Z,9.70
2019-04-11T13:13:27.440Z,9.70
2019-04-11T13:15:38.408Z,9.70
2019-04-11T13:17:43.685Z,9.50
2019-04-11T13:20:04.574Z,9.60
2019-04-11T13:22:04.899Z,9.60
2019-04-11T13:24:26.516Z,9.80
2019-04-11T13:26:34.606Z,9.60
2019-04-11T13:28:38.752Z,9.70
2019-04-11T13:30:57.713Z,9.90
2019-04-11T13:33:01.374Z,10.00
2019-04-11T13:35:07.108Z,10.00
2019-04-11T13:37:28.654Z,10.10
2019-04-11T13:39:33.242Z,9.90
2019-04-11T13:41:56.607Z,10.00
2019-04-11T13:44:01.240Z,9.90
2019-04-11T13:46:09.256Z,9.70
2019-04-11T13:48:14.475Z,9.60
2019-04-11T13:50:18.776Z,9.30
2019-04-11T13:52:33.055Z,9.20
2019-04-11T13:54:54.390Z,9.20
2019-04-11T13:56:59.637Z,9.30
2019-04-11T13:59:21.177Z,9.30
2019-04-11T14:01:24.951Z,9.40
2019-04-11T14:03:48.423Z,9.50
2019-04-11T14:05:52.080Z,9.80
2019-04-11T14:07:57.053Z,10.40
2019-04-11T14:10:02.517Z,10.80
2019-04-11T14:12:08.488Z,10.70
2019-04-11T14:14:13.790Z,10.50
2019-04-11T14:16:24.510Z,10.00
2019-04-11T14:18:29.880Z,9.90
2019-04-11T14:20:41.774Z,9.70
2019-04-11T14:22:45.035Z,10.00
2019-04-11T14:25:02.410Z,10.00
2019-04-11T14:27:07.764Z,10.10
2019-04-11T14:29:13.052Z,10.10
2019-04-11T14:31:21.810Z,10.00
2019-04-11T14:33:27.189Z,9.90
2019-04-11T14:35:44.648Z,9.80
2019-04-11T14:37:49.802Z,9.70
2019-04-11T14:39:57.849Z,9.60
2019-04-11T14:42:03.198Z,9.50
2019-04-11T14:44:06.757Z,9.30
2019-04-11T14:46:27.500Z,9.10
2019-04-11T14:48:40.095Z,9.20
2019-04-11T14:50:57.844Z,9.10
2019-04-11T14:53:08.918Z,9.10
2019-04-11T14:55:12.584Z,8.80
2019-04-11T14:57:34.234Z,8.90
2019-04-11T14:59:45.049Z,8.70
2019-04-11T15:01:50.280Z,8.80
2019-04-11T15:04:13.603Z,8.80
2019-04-11T15:06:18.917Z,8.90
2019-04-11T15:08:24.138Z,8.90
2019-04-11T15:10:38.564Z,8.80
2019-04-11T15:12:42.148Z,8.80
2019-04-11T15:14:48.512Z,8.90
2019-04-11T15:17:08.813Z,9.00
2019-04-11T15:19:13.082Z,8.90
2019-04-11T15:21:18.538Z,8.70
2019-04-11T15:23:23.706Z,8.60
2019-04-11T15:25:28.997Z,8.70
2019-04-11T15:27:50.555Z,8.60
2019-04-11T15:29:55.777Z,8.50
2019-04-11T15:32:17.569Z,8.40
2019-04-11T15:34:31.874Z,8.40
2019-04-11T15:36:39.738Z,8.40
2019-04-11T15:38:43.966Z,8.40
2019-04-11T15:40:48.517Z,8.30
2019-04-11T15:42:53.749Z,8.30
2019-04-11T15:44:59.020Z,8.40
2019-04-11T15:47:13.199Z,8.40
2019-04-11T15:49:31.155Z,8.40
2019-04-11T15:51:37.023Z,8.40
2019-04-11T15:53:48.201Z,8.40
2019-04-11T15:56:10.028Z,8.30
2019-04-11T15:58:13.648Z,8.20
2019-04-11T16:00:28.180Z,8.10
2019-04-11T16:02:33.459Z,8.00
2019-04-11T16:04:38.645Z,8.10
2019-04-11T16:06:46.293Z,8.00
2019-04-11T16:08:49.862Z,8.00
2019-04-11T16:10:57.191Z,8.00
2019-04-11T16:13:18.533Z,8.00
2019-04-11T16:15:23.766Z,7.80
2019-04-11T16:17:34.799Z,7.90
2019-04-11T16:19:52.425Z,8.00
2019-04-11T16:22:03.413Z,8.00
2019-04-11T16:24:14.442Z,8.10
2019-04-11T16:26:22.743Z,8.20
2019-04-11T16:28:44.435Z,8.10
2019-04-11T16:30:49.826Z,8.00
2019-04-11T16:33:04.160Z,7.90
2019-04-11T16:35:18.886Z,7.80
2019-04-11T16:37:22.610Z,7.90
2019-04-11T16:39:33.762Z,7.80
2019-04-11T16:41:55.399Z,7.80
2019-04-11T16:44:18.411Z,7.80
2019-04-11T16:46:41.754Z,7.80
2019-04-11T16:48:45.329Z,7.70
2019-04-11T16:50:48.288Z,7.70
2019-04-11T16:52:51.909Z,7.60
2019-04-11T16:54:55.486Z,7.60
2019-04-11T16:56:58.299Z,7.60
2019-04-11T16:59:01.894Z,7.50
2019-04-11T17:01:04.688Z,7.50
2019-04-11T17:03:08.308Z,7.40
2019-04-11T17:05:11.166Z,7.30
2019-04-11T17:07:19.117Z,7.30
2019-04-11T17:09:33.581Z,7.30
2019-04-11T17:11:37.225Z,7.30
2019-04-11T17:13:40.977Z,7.30
2019-04-11T17:15:44.533Z,7.20
2019-04-11T17:17:47.324Z,7.20
2019-04-11T17:19:50.939Z,7.20
2019-04-11T17:21:53.737Z,7.10
2019-04-11T17:23:57.317Z,7.10
2019-04-11T17:26:00.125Z,7.10
2019-04-11T17:28:03.803Z,7.10
2019-04-11T17:30:07.720Z,7.10
2019-04-11T17:32:13.765Z,7.10
2019-04-11T17:34:16.513Z,7.00
2019-04-11T17:36:19.330Z,7.10
2019-04-11T17:38:22.918Z,7.10
2019-04-11T17:40:25.737Z,7.10
2019-04-11T17:42:29.318Z,7.20
2019-04-11T17:44:32.220Z,7.10
2019-04-11T17:46:35.872Z,7.00
2019-04-11T17:48:39.465Z,7.00
2019-04-11T17:50:42.438Z,7.00
2019-04-11T17:52:46.112Z,7.10
2019-04-11T17:54:51.956Z,7.00
2019-04-11T17:56:58.758Z,6.90
2019-04-11T17:59:00.307Z,6.90
2019-04-11T18:01:05.476Z,6.80
2019-04-11T18:03:11.754Z,6.80
2019-04-11T18:05:17.153Z,6.90
2019-04-11T18:07:20.172Z,6.90
2019-04-11T18:09:25.815Z,6.80
2019-04-11T18:11:28.318Z,6.80
2019-04-11T18:13:31.981Z,6.70
2019-04-11T18:15:35.656Z,6.60
2019-04-11T18:17:39.294Z,6.60
2019-04-11T18:19:42.911Z,6.50
2019-04-11T18:21:46.549Z,6.40
2019-04-11T18:23:50.694Z,6.40
2019-04-11T18:25:54.490Z,6.40
2019-04-11T18:27:58.395Z,6.50
2019-04-11T18:30:01.989Z,6.50
2019-04-11T18:32:07.327Z,6.50
2019-04-11T18:34:11.041Z,6.50
2019-04-11T18:36:14.715Z,6.40
2019-04-11T18:38:18.313Z,6.40
2019-04-11T18:40:21.674Z,6.50
2019-04-11T18:42:25.252Z,6.50
2019-04-11T18:44:28.099Z,6.50
2019-04-11T18:46:31.763Z,6.50
2019-04-11T18:48:35.484Z,6.40
2019-04-11T18:50:39.234Z,6.30
2019-04-11T18:52:42.911Z,6.30
2019-04-11T18:54:46.555Z,6.30
2019-04-11T18:56:50.192Z,6.30
2019-04-11T18:58:56.835Z,6.30
2019-04-11T19:01:00.623Z,6.30
2019-04-11T19:03:04.342Z,6.20
2019-04-11T19:05:08.162Z,6.20
2019-04-11T19:07:13.318Z,6.20
2019-04-11T19:09:19.150Z,6.20
2019-04-11T19:11:22.727Z,6.20
2019-04-11T19:13:25.582Z,6.30
2019-04-11T19:15:29.319Z,6.20
2019-04-11T19:17:32.889Z,6.10
2019-04-11T19:19:35.745Z,6.10
2019-04-11T19:21:39.424Z,6.00
2019-04-11T19:23:43.026Z,5.90
2019-04-11T19:25:46.697Z,5.90
2019-04-11T19:27:53.973Z,5.90
2019-04-11T19:29:56.483Z,5.80
2019-04-11T19:32:00.213Z,5.80
2019-04-11T19:34:05.023Z,5.80
2019-04-11T19:36:09.990Z,5.80
2019-04-11T19:38:24.065Z,5.80
2019-04-11T19:40:30.275Z,5.70
2019-04-11T19:42:33.995Z,5.80
2019-04-11T19:44:37.641Z,5.80
2019-04-11T19:46:41.381Z,5.90
2019-04-11T19:48:44.950Z,5.80
2019-04-11T19:50:47.768Z,5.80
2019-04-11T19:52:51.346Z,5.80
2019-04-11T19:54:55.775Z,5.80
2019-04-11T19:57:03.774Z,5.80
2019-04-11T19:59:07.329Z,5.90
2019-04-11T20:01:10.261Z,5.80
2019-04-11T20:03:13.958Z,5.80
2019-04-11T20:05:17.606Z,5.80
2019-04-11T20:07:21.183Z,5.80
2019-04-11T20:09:24.904Z,5.70
2019-04-11T20:11:29.372Z,5.70
2019-04-11T20:13:33.613Z,5.80
2019-04-11T20:15:41.767Z,5.80
2019-04-11T20:17:44.612Z,5.80
2019-04-11T20:19:47.733Z,5.90
2019-04-11T20:21:50.554Z,5.90
2019-04-11T20:23:54.157Z,5.80
2019-04-11T20:25:57.734Z,5.80
2019-04-11T20:28:00.582Z,5.80
2019-04-11T20:30:06.229Z,5.90
2019-04-11T20:32:09.885Z,5.90
2019-04-11T20:34:13.598Z,5.90
2019-04-11T20:36:17.260Z,5.80
2019-04-11T20:38:20.766Z,5.80
2019-04-11T20:40:24.382Z,5.70
2019-04-11T20:42:28.067Z,5.70
2019-04-11T20:44:34.639Z,5.60
2019-04-11T20:46:38.358Z,5.60
2019-04-11T20:48:41.960Z,5.60
2019-04-11T20:50:45.560Z,5.50
2019-04-11T20:52:50.602Z,5.60
2019-04-11T20:54:54.204Z,5.50
2019-04-11T20:56:57.782Z,5.60
2019-04-11T20:59:00.578Z,5.60
2019-04-11T21:01:04.867Z,5.60
2019-04-11T21:03:08.471Z,5.60
2019-04-11T21:05:12.145Z,5.70
2019-04-11T21:07:15.757Z,5.70
2019-04-11T21:09:19.325Z,5.80
2019-04-11T21:11:22.960Z,5.70
2019-04-11T21:13:26.534Z,5.60
2019-04-11T21:15:30.109Z,5.60
2019-04-11T21:17:32.924Z,5.60
2019-04-11T21:19:36.504Z,5.50
2019-04-11T21:21:40.087Z,5.60
2019-04-11T21:23:42.878Z,5.50
2019-04-11T21:25:46.471Z,5.60
2019-04-11T21:27:50.103Z,5.60
2019-04-11T21:29:53.678Z,5.50
2019-04-11T21:32:00.856Z,5.50
2019-04-11T21:34:02.981Z,5.50
2019-04-11T21:36:06.827Z,5.50
2019-04-11T21:38:10.419Z,5.50
2019-04-11T21:40:14.200Z,5.40
2019-04-11T21:42:17.766Z,5.40
2019-04-11T21:44:21.489Z,5.50
2019-04-11T21:46:25.068Z,5.50
2019-04-11T21:48:28.711Z,5.50
2019-04-11T21:50:32.322Z,5.50
2019-04-11T21:52:35.955Z,5.50
2019-04-11T21:54:39.547Z,5.50
2019-04-11T21:56:43.180Z,5.60
2019-04-11T21:58:49.931Z,5.60
2019-04-11T22:01:01.162Z,5.60
2019-04-11T22:03:06.657Z,5.50
2019-04-11T22:05:10.675Z,5.60
2019-04-11T22:07:14.449Z,5.50
2019-04-11T22:09:18.433Z,5.50
2019-04-11T22:11:22.086Z,5.50
2019-04-11T22:13:25.757Z,5.50
2019-04-11T22:15:29.331Z,5.60
2019-04-11T22:17:32.182Z,5.60
2019-04-11T22:19:35.793Z,5.50
2019-04-11T22:21:39.353Z,5.50
2019-04-11T22:23:48.646Z,5.50
2019-04-11T22:25:47.401Z,5.50
2019-04-11T22:27:53.457Z,5.50
2019-04-11T22:29:56.233Z,5.50
2019-04-11T22:31:59.830Z,5.50
2019-04-11T22:34:21.541Z,5.50
2019-04-11T22:36:25.371Z,5.40
2019-04-11T22:38:31.064Z,5.50
2019-04-11T22:40:34.236Z,5.40
2019-04-11T22:42:37.819Z,5.40
2019-04-11T22:44:41.383Z,5.40
2019-04-11T22:46:44.203Z,5.40
2019-04-11T22:48:47.791Z,5.40
2019-04-11T22:50:51.359Z,5.40
2019-04-11T22:52:54.956Z,5.30
2019-04-11T22:54:58.550Z,5.20
2019-04-11T22:57:02.248Z,5.20
2019-04-11T22:59:05.916Z,5.20
2019-04-11T23:01:09.551Z,5.20
2019-04-11T23:03:17.630Z,5.20
2019-04-11T23:05:21.453Z,5.20
2019-04-11T23:07:25.060Z,5.10
2019-04-11T23:09:28.619Z,5.00
2019-04-11T23:11:32.218Z,5.00
2019-04-11T23:13:36.000Z,4.90
2019-04-11T23:15:39.640Z,4.90
2019-04-11T23:17:43.935Z,4.90
2019-04-11T23:19:48.316Z,4.90
2019-04-11T23:21:51.899Z,4.90
2019-04-11T23:23:55.465Z,4.90
2019-04-11T23:25:59.062Z,4.90
2019-04-11T23:28:02.629Z,4.90
2019-04-11T23:30:08.275Z,4.90
2019-04-11T23:32:11.869Z,4.90
2019-04-11T23:34:15.570Z,4.90
2019-04-11T23:36:21.322Z,4.90
2019-04-11T23:38:24.593Z,5.00
2019-04-11T23:40:28.274Z,5.00
2019-04-11T23:42:32.009Z,5.00
2019-04-11T23:44:35.669Z,5.10
2019-04-11T23:46:39.338Z,5.10
2019-04-11T23:48:43.019Z,5.00
2019-04-11T23:50:46.613Z,5.00
2019-04-11T23:52:50.198Z,5.00
2019-04-11T23:54:53.797Z,5.00
2019-04-11T23:57:00.627Z,5.00
2019-04-11T23:59:02.733Z,5.00
